DW9630 Weather Reports


Display with metric or nautical units.
time (UTC)temp
F
wind
direction
speed
MPH
gust
MPH
rain 1hr
in
rain 24hr
in
rain mn
in
humidity
%
barometer
mb
20190722224634 83 234 3.0 10.0 0.00 0.00 0.00 39 1013.5
20190722223101 83 275 5.0 13.0 0.00 0.00 0.00 39 1013.5
20190722221651 83 268 4.0 12.0 0.00 0.00 0.00 39 1013.5
20190722220054 82 320 0.0 5.0 0.00 0.00 0.00 39 1013.5
20190722214542 83 347 3.0 14.0 0.00 0.00 0.00 38 1013.5
20190722213050 83 46 1.0 11.0 0.00 0.00 0.00 38 1013.5
20190722211602 83 276 0.0 8.0 0.00 0.00 0.00 38 1013.5
20190722210046 83 113 0.0 8.0 0.00 0.00 0.00 36 1013.5
20190722204645 82 250 0.0 8.0 0.00 0.00 0.00 38 1013.5
20190722203057 81 294 0.0 10.0 0.00 0.00 0.00 38 1013.5
20190722201540 83 302 0.0 8.0 0.00 0.00 0.00 36 1013.5
20190722200031 82 280 4.0 12.0 0.00 0.00 0.00 36 1013.5
20190722194533 82 125 0.0 7.0 0.00 0.00 0.00 36 1013.5
20190722193023 82 242 2.0 10.0 0.00 0.00 0.00 37 1013.5
20190722191526 82 232 2.0 7.0 0.00 0.00 0.00 38 1013.5
20190722190037 80 165 1.0 10.0 0.00 0.00 0.00 38 1013.5
20190722184515 80 223 1.0 7.0 0.00 0.00 0.00 39 1013.5
20190722183021 79 275 1.0 7.0 0.00 0.00 0.00 41 1013.5
20190722181515 78 129 1.0 10.0 0.00 0.00 0.00 41 1013.5
20190722180002 76 240 2.0 7.0 0.00 0.00 0.00 40 1013.5
20190722174738 76 156 0.0 6.0 0.00 0.00 0.00 42 1013.5
20190722173244 75 164 0.0 5.0 0.00 0.00 0.00 41 1013.5
20190722171700 74 240 0.0 3.0 0.00 0.00 0.00 42 1013.5
20190722170203 73 193 1.0 7.0 0.00 0.00 0.00 48 1013.5
20190722164649 71 221 0.0 4.0 0.00 0.00 0.00 51 1013.5
20190722163118 70 192 0.0 1.0 0.00 0.00 0.00 53 1013.5
20190722161714 69 238 0.0 0.0 0.00 0.00 0.00 56 1013.5
20190722160118 66 264 0.0 1.0 0.00 0.00 0.00 62 1013.5
20190722154555 65 194 0.0 0.0 0.00 0.00 0.00 63 1013.5
20190722153138 63 194 0.0 1.0 0.00 0.00 0.00 66 1013.5
20190722151604 61 194 0.0 0.0 0.00 0.00 0.00 69 1013.5
20190722150102 59 194 0.0 0.0 0.00 0.00 0.00 71 1013.5
20190722144525 58 192 0.0 0.0 0.00 0.00 0.00 73 1013.5
20190722143108 56 324 0.0 0.0 0.00 0.00 0.00 77 1013.5
20190722141530 53 325 0.0 0.0 0.00 0.00 0.00 82 1013.5
20190722140051 49 325 0.0 0.0 0.00 0.00 0.00 81 1013.5
20190722134534 47 325 0.0 0.0 0.00 0.00 0.00 81 1013.5
20190722133031 46 325 0.0 0.0 0.00 0.00 0.00 82 1013.5
20190722131545 46 325 0.0 0.0 0.00 0.00 0.00 82 1013.5
20190722130038 46 325 0.0 0.0 0.00 0.00 0.00 80 1013.5
20190722124514 46 325 0.0 0.0 0.00 0.00 0.00 79 1013.5
20190722123028 47 325 0.0 0.0 0.00 0.00 0.00 79 1013.5
20190722121513 47 325 0.0 0.0 0.00 0.00 0.00 79 1013.5
20190722120036 48 325 0.0 0.0 0.00 0.00 0.00 79 1013.5
20190722114505 48 325 0.0 0.0 0.00 0.00 0.00 82 1013.5
20190722113005 48 325 0.0 0.0 0.00 0.00 0.00 77 1013.5
20190722111503 49 325 0.0 0.0 0.00 0.00 0.00 77 1013.5
20190722110121 49 325 0.0 0.0 0.00 0.00 0.00 77 1013.5
20190722104720 50 325 0.0 0.0 0.00 0.00 0.00 76 1013.5
20190722103221 50 325 0.0 0.0 0.00 0.00 0.00 76 1013.5
20190722101643 51 325 0.0 0.0 0.00 0.00 0.00 74 1013.5
20190722100129 52 325 0.0 0.0 0.00 0.00 0.00 73 1013.5
20190722094618 52 325 0.0 0.0 0.00 0.00 0.00 74 1013.5
20190722093105 52 325 0.0 0.0 0.00 0.00 0.00 73 1013.5
20190722091625 53 325 0.0 0.0 0.00 0.00 0.00 73 1013.5
20190722090123 53 325 0.0 0.0 0.00 0.00 0.00 72 1013.5
20190722084555 53 325 0.0 0.0 0.00 0.00 0.00 71 1013.5
20190722083317 54 325 0.0 0.0 0.00 0.00 0.00 70 1013.5
20190722081622 54 325 0.0 0.0 0.00 0.00 0.00 72 1013.5
20190722080129 55 325 0.0 0.0 0.00 0.00 0.00 70 1013.5
20190722074624 55 325 0.0 0.0 0.00 0.00 0.00 67 1013.5
20190722073056 56 325 0.0 0.0 0.00 0.00 0.00 65 1013.5
20190722071617 57 324 0.0 0.0 0.00 0.00 0.00 63 1013.5
20190722070032 58 325 0.0 0.0 0.00 0.00 0.00 62 1013.5
20190722064541 59 325 0.0 0.0 0.00 0.00 0.00 61 1013.5
20190722063102 60 325 0.0 0.0 0.00 0.00 0.00 60 1013.5
20190722061553 61 325 0.0 0.0 0.00 0.00 0.00 59 1013.5
20190722060030 61 325 0.0 0.0 0.00 0.00 0.00 59 1013.5
20190722054559 62 325 0.0 0.0 0.00 0.00 0.00 60 1013.5
20190722053047 63 325 0.0 0.0 0.00 0.00 0.00 60 1013.5
20190722051527 64 325 0.0 0.0 0.00 0.00 0.00 60 1013.5
20190722050116 66 325 0.0 0.0 0.00 0.00 0.00 59 1013.5
20190722044528 67 325 0.0 0.0 0.00 0.00 0.00 57 1013.5
20190722043029 69 325 0.0 0.0 0.00 0.00 0.00 55 1013.5
20190722041552 70 323 0.0 0.0 0.00 0.00 0.00 53 1013.5
20190722040049 72 323 0.0 9.0 0.00 0.00 0.00 51 1013.5
20190722034621 73 296 0.0 5.0 0.00 0.00 0.00 50 1013.5
20190722033034 74 279 0.0 4.0 0.00 0.00 0.00 49 1013.5
20190722031536 76 57 0.0 4.0 0.00 0.00 0.00 47 1013.5
20190722030058 76 333 1.0 8.0 0.00 0.00 0.00 46 1013.5
20190722024523 77 279 0.0 10.0 0.00 0.00 0.00 45 1013.5
20190722023034 79 288 1.0 10.0 0.00 0.00 0.00 43 1013.5
20190722021521 80 314 2.0 11.0 0.00 0.00 0.00 40 1013.5
20190722020054 81 355 0.0 9.0 0.00 0.00 0.00 30 1013.5
20190722014519 82 49 0.0 9.0 0.00 0.00 0.00 29 1013.5
20190722013123 82 21 1.0 12.0 0.00 0.00 0.00 29 1013.5
20190722011535 83 55 1.0 12.0 0.00 0.00 0.00 29 1013.5
20190722010024 83 75 1.0 12.0 0.00 0.00 0.00 29 1013.5
20190722004519 83 303 3.0 14.0 0.00 0.00 0.00 29 1013.5
20190722003020 83 38 4.0 15.0 0.00 0.00 0.00 29 1013.5
20190722001518 85 25 2.0 13.0 0.00 0.00 0.00 28 1013.5
20190722000020 85 298 2.0 15.0 0.00 0.00 0.00 28 1013.5
20190721234519 85 29 3.0 14.0 0.00 0.00 0.00 29 1013.5
20190721233018 86 360 4.0 13.0 0.00 0.00 0.00 28 1013.5
20190721231539 86 253 2.0 13.0 0.00 0.00 0.00 28 1013.5
20190721230011 86 32 2.0 10.0 0.00 0.00 0.00 29 1013.5